Time;durP1;ratioP1;P1;durP2;ratioP2;P2;SDS_P1;SDS_P2;PMS_P1;PMS_P2;Temp;Humidity;BMP_temperature;BMP_pressure;BME280_temperature;BME280_humidity;BME280_pressure;Samples;Min_cycle;Max_cycle;Signal;HPM_P1;HPM_P2
2022/08/15 00:00:57;;;;;;;1.67;1.40;;;28.30;38.90;;;;;;5127848;27;46377;-73
2022/08/15 00:03:27;;;;;;;2.28;1.30;;;28.20;39.70;;;;;;5127895;27;45183;-73
2022/08/15 00:05:54;;;;;;;1.27;1.10;;;28.20;39.50;;;;;;5128031;27;45252;-73
2022/08/15 00:08:21;;;;;;;1.83;1.27;;;28.20;40.10;;;;;;5128103;27;45483;-74
2022/08/15 00:10:48;;;;;;;1.48;1.38;;;28.20;40.50;;;;;;5127666;27;46397;-73
2022/08/15 00:13:18;;;;;;;1.38;1.27;;;28.20;40.60;;;;;;5127848;27;45175;-73
2022/08/15 00:15:46;;;;;;;1.30;1.20;;;28.10;40.80;;;;;;5127795;27;45319;-73
2022/08/15 00:18:13;;;;;;;1.25;1.00;;;28.10;40.70;;;;;;5128005;27;45214;-73
2022/08/15 00:20:40;;;;;;;1.20;1.20;;;28.10;41.50;;;;;;5127543;27;45481;-73
2022/08/15 00:23:09;;;;;;;2.50;1.17;;;28.10;41.10;;;;;;5127673;27;45126;-73
2022/08/15 00:25:37;;;;;;;1.25;1.15;;;28.10;42.10;;;;;;5127747;27;45308;-72
2022/08/15 00:28:05;;;;;;;2.15;1.17;;;28.10;42.10;;;;;;5127145;27;45500;-73
2022/08/15 00:30:33;;;;;;;1.88;1.30;;;28.10;42.40;;;;;;5115323;27;45469;-73
2022/08/15 00:33:00;;;;;;;1.20;1.10;;;28.10;42.60;;;;;;5106931;27;45271;-73
2022/08/15 00:35:39;;;;;;;1.17;0.98;;;28.00;42.50;;;;;;5107038;27;45496;-73
2022/08/15 00:38:06;;;;;;;1.30;1.20;;;28.00;42.70;;;;;;5107162;27;45263;-73
2022/08/15 00:41:39;;;;;;;2.55;1.17;;;28.00;42.80;;;;;;5106732;27;46494;-73
2022/08/15 00:43:21;;;;;;;3.05;1.30;;;28.00;42.60;;;;;;5106579;27;45316;-73
2022/08/15 00:45:49;;;;;;;1.77;1.40;;;27.90;42.90;;;;;;5106944;27;45290;-74
2022/08/15 00:51:01;;;;;;;1.33;1.23;;;27.90;43.10;;;;;;5111571;27;45161;-74
2022/08/15 00:53:28;;;;;;;1.85;1.33;;;27.90;43.00;;;;;;5130902;27;45188;-74
2022/08/15 00:55:55;;;;;;;2.13;1.40;;;27.90;43.20;;;;;;5131033;27;45252;-73
2022/08/15 00:58:21;;;;;;;1.52;1.42;;;27.90;43.00;;;;;;5131025;27;45362;-73
2022/08/15 01:00:50;;;;;;;1.30;1.10;;;27.90;43.10;;;;;;5130615;27;46689;-74
2022/08/15 01:03:20;;;;;;;1.42;1.17;;;27.90;43.00;;;;;;5130702;27;45204;-73
2022/08/15 01:05:49;;;;;;;2.28;1.30;;;27.80;43.00;;;;;;5130830;27;45231;-74
2022/08/15 01:08:16;;;;;;;1.50;1.20;;;27.80;43.40;;;;;;5130937;27;45168;-74
2022/08/15 01:10:43;;;;;;;2.35;1.30;;;27.80;43.50;;;;;;5130463;27;46659;-74
2022/08/15 01:13:10;;;;;;;1.95;1.20;;;27.80;43.30;;;;;;5130657;27;45290;-74
2022/08/15 01:15:37;;;;;;;1.90;1.20;;;27.80;42.90;;;;;;5130812;27;45219;-74
2022/08/15 01:18:05;;;;;;;0.98;0.98;;;27.80;43.00;;;;;;5130846;27;45271;-74
2022/08/15 01:20:32;;;;;;;1.50;1.10;;;27.80;42.90;;;;;;5130260;27;46208;-74
2022/08/15 01:23:04;;;;;;;1.20;1.15;;;27.70;42.90;;;;;;5130410;27;45185;-73
2022/08/15 01:25:35;;;;;;;1.25;1.10;;;27.70;42.60;;;;;;5130490;27;45186;-74
2022/08/15 01:28:04;;;;;;;1.30;1.20;;;27.70;42.60;;;;;;5130585;27;45210;-74
2022/08/15 01:30:33;;;;;;;1.00;1.00;;;27.70;42.30;;;;;;5118010;27;46352;-74
2022/08/15 01:32:59;;;;;;;1.17;1.00;;;27.70;42.00;;;;;;5109599;27;45189;-73
2022/08/15 01:35:26;;;;;;;1.10;1.00;;;27.70;42.10;;;;;;5108872;27;45335;-73
2022/08/15 01:37:53;;;;;;;1.30;0.98;;;27.70;42.00;;;;;;5109732;27;45328;-73
2022/08/15 01:40:24;;;;;;;2.38;1.20;;;27.60;41.90;;;;;;5109491;27;46408;-73
2022/08/15 01:42:52;;;;;;;1.67;1.10;;;27.60;42.00;;;;;;5109410;27;45295;-74
2022/08/15 01:45:20;;;;;;;1.30;1.20;;;27.60;42.00;;;;;;5109706;27;45316;-74
2022/08/15 01:47:49;;;;;;;1.02;1.00;;;27.60;42.00;;;;;;5109635;27;45113;-73
2022/08/15 01:50:17;;;;;;;0.90;0.90;;;27.60;42.00;;;;;;5109151;27;46400;-74
2022/08/15 01:52:47;;;;;;;1.88;1.05;;;27.60;41.90;;;;;;5125169;27;45348;-74
2022/08/15 01:55:13;;;;;;;2.22;1.00;;;27.60;42.00;;;;;;5130111;27;45137;-74
2022/08/15 01:57:40;;;;;;;3.72;1.38;;;27.50;41.90;;;;;;5130094;27;45394;-74
2022/08/15 02:00:10;;;;;;;2.03;1.02;;;27.50;41.90;;;;;;5129494;27;45258;-73
2022/08/15 02:02:36;;;;;;;1.70;1.40;;;27.50;41.90;;;;;;5129838;27;45319;-74
2022/08/15 02:05:04;;;;;;;1.52;1.10;;;27.50;41.90;;;;;;5129940;27;45239;-73
2022/08/15 02:07:31;;;;;;;1.45;1.25;;;27.50;41.90;;;;;;5130057;27;45410;-74
2022/08/15 02:09:58;;;;;;;0.82;0.82;;;27.50;41.80;;;;;;5129736;27;45382;-73
2022/08/15 02:12:26;;;;;;;1.35;1.20;;;27.40;42.00;;;;;;5129453;27;45255;-74
2022/08/15 02:14:53;;;;;;;1.13;1.02;;;27.40;42.10;;;;;;5129868;27;45121;-74
2022/08/15 02:17:21;;;;;;;0.98;0.93;;;27.40;42.30;;;;;;5129825;27;45230;-74
2022/08/15 02:19:48;;;;;;;2.50;1.02;;;27.40;42.30;;;;;;5129315;27;46746;-73
2022/08/15 02:22:16;;;;;;;2.78;1.13;;;27.40;42.60;;;;;;5129472;27;45147;-73
2022/08/15 02:24:43;;;;;;;1.30;1.20;;;27.40;42.60;;;;;;5128789;27;45172;-73
2022/08/15 02:27:11;;;;;;;1.80;0.90;;;27.40;42.80;;;;;;5129744;27;45364;-73
2022/08/15 02:29:38;;;;;;;1.23;1.00;;;27.40;42.90;;;;;;5124691;27;45395;-73
2022/08/15 02:32:07;;;;;;;1.20;1.10;;;27.30;42.70;;;;;;5108606;27;45218;-73
2022/08/15 02:34:35;;;;;;;1.30;1.17;;;27.30;42.90;;;;;;5109022;27;45183;-73
2022/08/15 02:37:03;;;;;;;1.23;1.13;;;27.30;43.00;;;;;;5108264;27;45354;-74
2022/08/15 02:39:29;;;;;;;1.05;1.05;;;27.30;43.70;;;;;;5108471;27;46677;-73
2022/08/15 02:41:56;;;;;;;2.08;1.10;;;27.30;42.90;;;;;;5108584;27;45131;-74
2022/08/15 02:44:23;;;;;;;1.08;1.00;;;27.20;43.10;;;;;;5108552;27;45167;-74
2022/08/15 02:46:50;;;;;;;2.03;1.10;;;27.20;43.00;;;;;;5108806;27;45216;-73
2022/08/15 02:49:18;;;;;;;1.70;1.42;;;27.20;43.20;;;;;;5108271;27;45801;-73
2022/08/15 02:51:46;;;;;;;1.30;1.17;;;27.20;43.20;;;;;;5115679;27;45306;-73
2022/08/15 02:54:13;;;;;;;1.45;1.10;;;27.20;43.00;;;;;;5129059;27;45246;-73
2022/08/15 02:56:41;;;;;;;1.35;1.23;;;27.20;43.30;;;;;;5129304;27;45405;-73
2022/08/15 02:59:08;;;;;;;1.35;1.17;;;27.20;43.30;;;;;;5128820;27;45747;-74
2022/08/15 03:01:37;;;;;;;1.02;0.90;;;27.10;43.40;;;;;;5128945;27;45341;-73
2022/08/15 03:04:04;;;;;;;1.45;1.05;;;27.10;43.20;;;;;;5129069;27;45238;-74
2022/08/15 03:06:32;;;;;;;1.63;1.27;;;27.10;43.40;;;;;;5129195;27;45454;-74
2022/08/15 03:09:02;;;;;;;1.27;1.17;;;27.10;43.40;;;;;;5128651;27;45500;-74
2022/08/15 03:11:29;;;;;;;1.50;1.20;;;27.10;43.40;;;;;;5127777;27;45140;-74
2022/08/15 03:13:56;;;;;;;1.00;1.00;;;27.10;43.30;;;;;;5128139;27;45322;-74
2022/08/15 03:16:23;;;;;;;2.92;1.10;;;27.10;43.30;;;;;;5128709;27;45370;-73
2022/08/15 03:18:50;;;;;;;1.20;1.10;;;27.00;43.00;;;;;;5128416;27;45224;-73
2022/08/15 03:21:19;;;;;;;1.30;1.20;;;27.00;42.90;;;;;;5128495;27;45186;-73
2022/08/15 03:23:48;;;;;;;1.45;1.35;;;27.00;42.90;;;;;;5128700;27;45321;-73
2022/08/15 03:26:17;;;;;;;1.20;1.10;;;27.00;43.00;;;;;;5128866;27;45286;-73
2022/08/15 03:28:44;;;;;;;1.35;1.23;;;27.00;42.90;;;;;;5128448;27;46717;-73
2022/08/15 03:31:11;;;;;;;1.77;1.13;;;27.00;42.80;;;;;;5110439;27;45436;-74
2022/08/15 03:33:38;;;;;;;1.67;1.33;;;27.00;42.60;;;;;;5107796;27;45302;-73
2022/08/15 03:36:06;;;;;;;1.70;1.10;;;27.00;42.70;;;;;;5107889;27;45486;-73
2022/08/15 03:38:33;;;;;;;1.63;1.25;;;26.90;42.50;;;;;;5107490;27;45227;-73
2022/08/15 03:41:00;;;;;;;2.15;1.10;;;26.90;42.50;;;;;;5107623;27;45319;-74
2022/08/15 03:43:29;;;;;;;1.23;1.10;;;26.90;42.40;;;;;;5107635;27;45275;-73
2022/08/15 03:45:58;;;;;;;2.05;1.17;;;26.90;42.40;;;;;;5107960;27;45149;-73
2022/08/15 03:48:26;;;;;;;1.27;1.17;;;26.90;42.40;;;;;;5107448;27;45478;-73
2022/08/15 03:50:53;;;;;;;1.25;1.15;;;26.90;42.40;;;;;;5107365;27;45361;-74
2022/08/15 03:53:20;;;;;;;1.17;1.02;;;26.90;42.20;;;;;;5128145;27;45287;-73
2022/08/15 03:55:46;;;;;;;1.30;1.20;;;26.80;42.20;;;;;;5128496;27;45124;-74
2022/08/15 03:58:14;;;;;;;1.33;1.23;;;26.80;42.30;;;;;;5127928;27;45171;-73
2022/08/15 04:00:43;;;;;;;1.35;1.20;;;26.80;42.30;;;;;;5128042;27;45136;-73
2022/08/15 04:03:12;;;;;;;1.05;1.05;;;26.80;42.80;;;;;;5127220;27;45339;-73
2022/08/15 04:05:39;;;;;;;1.30;1.20;;;26.80;42.20;;;;;;5127631;27;45193;-74
2022/08/15 04:08:08;;;;;;;1.42;1.10;;;26.80;42.10;;;;;;5127820;27;47232;-73
2022/08/15 04:10:36;;;;;;;1.10;1.10;;;26.80;42.20;;;;;;5127769;27;45271;-73
2022/08/15 04:13:03;;;;;;;1.10;1.00;;;26.80;42.10;;;;;;5128058;27;45242;-74
2022/08/15 04:15:30;;;;;;;1.35;1.02;;;26.80;42.20;;;;;;5128134;27;45242;-73
2022/08/15 04:17:59;;;;;;;2.00;1.00;;;26.70;42.10;;;;;;5127651;27;45409;-74
2022/08/15 04:20:26;;;;;;;1.40;1.30;;;26.70;41.90;;;;;;5128015;27;45210;-74
2022/08/15 04:22:53;;;;;;;1.30;1.17;;;26.70;41.90;;;;;;5130547;27;45214;-74
2022/08/15 04:25:21;;;;;;;1.17;1.08;;;26.70;41.90;;;;;;5131937;27;45286;-74
2022/08/15 04:27:50;;;;;;;1.90;1.15;;;26.70;42.00;;;;;;5131485;27;45486;-74
2022/08/15 04:30:17;;;;;;;1.85;1.20;;;26.70;42.00;;;;;;5121212;27;45142;-74
2022/08/15 04:32:44;;;;;;;1.30;1.20;;;26.70;42.00;;;;;;5110627;27;45185;-73
2022/08/15 04:35:12;;;;;;;1.45;1.20;;;26.70;42.00;;;;;;5111453;27;45498;-74
2022/08/15 04:37:40;;;;;;;1.10;1.10;;;26.70;42.10;;;;;;5110185;27;45263;-74
2022/08/15 04:40:08;;;;;;;1.17;1.15;;;26.60;42.10;;;;;;5110585;27;45167;-74
2022/08/15 04:42:45;;;;;;;1.08;1.00;;;26.60;42.20;;;;;;5110559;27;45200;-73
2022/08/15 04:45:12;;;;;;;1.10;1.10;;;26.60;42.20;;;;;;5110779;27;45466;-73
2022/08/15 04:47:38;;;;;;;1.95;1.20;;;26.60;42.20;;;;;;5110131;27;45281;-73
2022/08/15 04:50:06;;;;;;;1.23;1.13;;;26.60;42.20;;;;;;5110446;27;44722;-74
2022/08/15 04:52:34;;;;;;;1.27;1.20;;;26.60;42.20;;;;;;5124549;27;45197;-74
2022/08/15 04:55:01;;;;;;;1.27;1.17;;;26.60;42.50;;;;;;5130218;27;45434;-74
2022/08/15 04:57:28;;;;;;;1.30;1.20;;;26.60;42.60;;;;;;5130478;27;45363;-74
2022/08/15 04:59:54;;;;;;;1.40;1.10;;;26.60;42.60;;;;;;5130885;27;45240;-74
2022/08/15 05:02:24;;;;;;;1.25;1.15;;;26.60;42.60;;;;;;5130972;27;45202;-74
2022/08/15 05:04:51;;;;;;;1.45;1.20;;;26.50;42.70;;;;;;5131176;27;45103;-74
2022/08/15 05:07:17;;;;;;;2.92;1.17;;;26.50;43.10;;;;;;5130604;27;45243;-74
2022/08/15 05:09:46;;;;;;;1.40;1.20;;;26.50;43.10;;;;;;5130684;27;45275;-74
2022/08/15 05:12:13;;;;;;;1.30;1.20;;;26.50;42.90;;;;;;5130602;27;45336;-74
2022/08/15 05:14:40;;;;;;;1.63;1.30;;;26.50;43.10;;;;;;5130903;27;45398;-74
2022/08/15 05:17:07;;;;;;;1.10;1.08;;;26.50;43.40;;;;;;5130573;27;45386;-74
2022/08/15 05:19:34;;;;;;;1.30;1.20;;;26.50;43.20;;;;;;5130481;27;45302;-74
2022/08/15 05:22:00;;;;;;;2.05;1.20;;;26.50;43.40;;;;;;5130598;27;45240;-74
2022/08/15 05:24:27;;;;;;;1.50;1.30;;;26.50;43.40;;;;;;5130972;27;45134;-74
2022/08/15 05:26:55;;;;;;;1.30;1.20;;;26.50;43.20;;;;;;5130265;27;46737;-74
2022/08/15 05:29:22;;;;;;;1.30;1.20;;;26.50;43.50;;;;;;5128126;27;45308;-74
2022/08/15 05:31:49;;;;;;;1.30;1.20;;;26.50;43.40;;;;;;5109665;27;45226;-73
2022/08/15 05:34:17;;;;;;;1.30;1.20;;;26.40;43.30;;;;;;5109143;27;45352;-73
2022/08/15 05:36:45;;;;;;;1.33;1.25;;;26.40;43.50;;;;;;5109604;27;45479;-74
2022/08/15 05:39:15;;;;;;;1.73;1.40;;;26.40;43.60;;;;;;5109376;27;45200;-73
2022/08/15 05:41:46;;;;;;;1.15;1.08;;;26.40;43.70;;;;;;5109716;27;45337;-73
2022/08/15 05:44:18;;;;;;;1.15;1.05;;;26.40;43.80;;;;;;5109021;27;45317;-74
2022/08/15 05:46:47;;;;;;;1.98;1.23;;;26.40;43.80;;;;;;5108882;27;45376;-74
2022/08/15 05:49:30;;;;;;;1.38;1.30;;;26.40;43.90;;;;;;5109463;27;45275;-74
2022/08/15 05:52:05;;;;;;;1.40;1.30;;;26.40;43.80;;;;;;5116126;27;45347;-74
2022/08/15 05:54:42;;;;;;;1.80;1.30;;;26.40;44.10;;;;;;5129474;27;45500;-74
2022/08/15 05:57:13;;;;;;;2.22;1.40;;;26.40;44.20;;;;;;5129241;27;45625;-74
2022/08/15 05:59:42;;;;;;;2.08;1.40;;;26.40;45.00;;;;;;5129274;27;45284;-74
2022/08/15 06:02:11;;;;;;;1.38;1.27;;;26.40;44.50;;;;;;5129942;27;45355;-74
2022/08/15 06:04:41;;;;;;;1.52;1.40;;;26.40;44.60;;;;;;5130201;27;45485;-74
2022/08/15 06:07:11;;;;;;;1.65;1.20;;;26.40;44.90;;;;;;5129795;27;46410;-74
2022/08/15 06:09:40;;;;;;;2.65;1.40;;;26.40;44.80;;;;;;5129835;27;45176;-74
2022/08/15 06:12:09;;;;;;;1.52;1.20;;;26.40;44.90;;;;;;5129705;27;45137;-74
2022/08/15 06:14:39;;;;;;;1.30;1.30;;;26.40;44.90;;;;;;5129851;27;45267;-74
2022/08/15 06:17:10;;;;;;;1.85;1.15;;;26.40;44.90;;;;;;5129749;27;46457;-74
2022/08/15 06:19:42;;;;;;;1.67;1.58;;;26.40;44.80;;;;;;5129743;27;45458;-74
2022/08/15 06:22:19;;;;;;;1.33;1.23;;;26.40;44.90;;;;;;5129784;27;45299;-74
2022/08/15 06:24:50;;;;;;;1.45;1.35;;;26.40;45.10;;;;;;5129827;27;45240;-74
2022/08/15 06:27:21;;;;;;;1.70;1.30;;;26.30;44.90;;;;;;5129288;27;46623;-75
2022/08/15 06:29:55;;;;;;;1.77;1.35;;;26.30;44.90;;;;;;5123608;27;45186;-74
2022/08/15 06:32:26;;;;;;;1.50;1.40;;;26.40;44.80;;;;;;5108857;27;45343;-74
2022/08/15 06:34:56;;;;;;;1.20;1.17;;;26.40;44.70;;;;;;5109368;27;45200;-74
2022/08/15 06:37:25;;;;;;;1.10;1.10;;;26.40;44.90;;;;;;5108125;27;46658;-74
2022/08/15 06:40:10;;;;;;;1.50;1.40;;;26.40;44.80;;;;;;5108472;27;45279;-74
2022/08/15 06:42:37;;;;;;;1.50;1.40;;;26.40;44.90;;;;;;5108746;27;45278;-74
2022/08/15 06:45:07;;;;;;;1.15;1.10;;;26.40;44.60;;;;;;5107688;27;45281;-74
2022/08/15 06:47:35;;;;;;;1.40;1.30;;;26.40;44.40;;;;;;5108398;27;46409;-74
2022/08/15 06:50:06;;;;;;;1.30;1.20;;;26.40;44.40;;;;;;5108409;27;45185;-74
2022/08/15 06:52:34;;;;;;;1.33;1.13;;;26.40;44.00;;;;;;5122576;27;45165;-74
2022/08/15 06:55:00;;;;;;;1.50;1.20;;;26.40;44.20;;;;;;5129236;27;45278;-74
2022/08/15 06:57:31;;;;;;;1.67;1.27;;;26.40;44.00;;;;;;5128854;27;45462;-74
2022/08/15 07:00:03;;;;;;;1.45;1.10;;;26.40;44.10;;;;;;5128648;27;45295;-74
2022/08/15 07:02:43;;;;;;;1.30;1.20;;;26.40;43.80;;;;;;5129171;27;45262;-74
2022/08/15 07:05:13;;;;;;;1.00;1.00;;;26.40;44.10;;;;;;5129324;27;45188;-74
2022/08/15 07:07:44;;;;;;;1.35;1.10;;;26.40;44.00;;;;;;5128691;27;46394;-74
2022/08/15 07:10:15;;;;;;;1.27;1.15;;;26.40;43.90;;;;;;5128767;27;45250;-74
2022/08/15 07:12:45;;;;;;;1.40;1.30;;;26.40;43.90;;;;;;5128989;27;45299;-74
2022/08/15 07:15:15;;;;;;;1.38;1.08;;;26.40;43.80;;;;;;5129128;27;45414;-74
2022/08/15 07:17:46;;;;;;;1.30;1.30;;;26.40;43.70;;;;;;5128680;27;45475;-74
2022/08/15 07:20:12;;;;;;;1.13;1.10;;;26.40;43.70;;;;;;5128554;27;45222;-73
2022/08/15 07:22:40;;;;;;;1.75;1.20;;;26.40;43.70;;;;;;5127919;27;45337;-73
2022/08/15 07:25:09;;;;;;;1.17;1.10;;;26.40;43.70;;;;;;5128822;27;45309;-74
2022/08/15 07:27:37;;;;;;;1.10;1.00;;;26.40;43.50;;;;;;5128616;27;46595;-73
2022/08/15 07:30:06;;;;;;;1.63;1.27;;;26.40;43.40;;;;;;5120287;27;45377;-74
2022/08/15 07:32:44;;;;;;;1.05;0.90;;;26.40;43.20;;;;;;5107942;27;45428;-74
2022/08/15 07:35:18;;;;;;;0.98;0.98;;;26.40;43.20;;;;;;5108095;27;45215;-74
2022/08/15 07:37:51;;;;;;;0.90;0.90;;;26.40;43.10;;;;;;5107404;27;45446;-74
2022/08/15 07:40:20;;;;;;;1.10;1.08;;;26.40;43.00;;;;;;5107706;27;45322;-73
2022/08/15 07:42:48;;;;;;;1.10;1.00;;;26.40;43.00;;;;;;5107981;27;45192;-73
2022/08/15 07:45:17;;;;;;;1.30;1.20;;;26.40;43.00;;;;;;5107756;27;45474;-73
2022/08/15 07:47:56;;;;;;;1.13;0.98;;;26.40;43.00;;;;;;5107733;27;46339;-73
2022/08/15 07:50:31;;;;;;;1.20;1.10;;;26.40;42.90;;;;;;5107329;27;45138;-73
2022/08/15 07:53:04;;;;;;;1.50;1.40;;;26.40;42.70;;;;;;5125545;27;45148;-73
2022/08/15 07:55:31;;;;;;;1.15;1.05;;;26.40;42.70;;;;;;5128438;27;45224;-73
2022/08/15 07:58:00;;;;;;;1.10;1.10;;;26.40;42.80;;;;;;5127477;27;46645;-73
2022/08/15 08:00:28;;;;;;;0.95;0.90;;;26.40;42.70;;;;;;5128035;27;45343;-73
2022/08/15 08:03:00;;;;;;;1.25;1.10;;;26.40;42.60;;;;;;5128318;27;45130;-73
2022/08/15 08:05:30;;;;;;;2.28;1.25;;;26.40;42.80;;;;;;5128578;27;45293;-73
2022/08/15 08:07:57;;;;;;;1.15;1.05;;;26.40;42.80;;;;;;5128115;27;47395;-73
2022/08/15 08:10:28;;;;;;;0.88;0.88;;;26.40;42.80;;;;;;5127824;27;45355;-73
2022/08/15 08:13:03;;;;;;;1.13;1.13;;;26.50;42.80;;;;;;5128693;27;45136;-73
2022/08/15 08:15:32;;;;;;;1.30;1.30;;;26.50;42.80;;;;;;5128237;27;45398;-73
2022/08/15 08:18:03;;;;;;;1.20;1.10;;;26.50;42.90;;;;;;5127767;27;45418;-73
2022/08/15 08:20:33;;;;;;;1.30;1.20;;;26.50;43.00;;;;;;5127718;27;45274;-73
2022/08/15 08:23:02;;;;;;;1.02;1.02;;;26.50;43.50;;;;;;5127905;27;45234;-73
2022/08/15 08:25:32;;;;;;;1.40;1.30;;;26.60;42.90;;;;;;5127783;27;45315;-73
2022/08/15 08:28:06;;;;;;;1.27;1.17;;;26.60;42.60;;;;;;5127422;27;46364;-73
2022/08/15 08:30:37;;;;;;;1.13;1.02;;;26.60;42.60;;;;;;5115352;27;45226;-73
2022/08/15 08:33:11;;;;;;;1.83;1.20;;;26.60;42.60;;;;;;5107555;27;45348;-73
2022/08/15 08:35:41;;;;;;;1.65;1.30;;;26.70;42.60;;;;;;5107215;27;45257;-73
2022/08/15 08:38:21;;;;;;;2.38;1.20;;;26.70;42.40;;;;;;5106897;27;46434;-73
2022/08/15 08:43:45;;;;;;;1.40;1.30;;;26.70;42.40;;;;;;5107306;27;45174;-73
2022/08/15 08:46:19;;;;;;;1.48;1.20;;;26.80;42.40;;;;;;5107176;27;45182;-73
2022/08/15 08:49:01;;;;;;;1.33;1.23;;;26.70;42.30;;;;;;5106885;27;47764;-73
2022/08/15 08:51:34;;;;;;;1.40;1.30;;;26.80;42.20;;;;;;5111695;27;45232;-73
2022/08/15 08:54:06;;;;;;;1.40;1.30;;;26.80;42.30;;;;;;5127882;27;45354;-73
2022/08/15 08:56:36;;;;;;;1.50;1.40;;;26.80;42.40;;;;;;5127685;27;45371;-73
2022/08/15 08:59:08;;;;;;;1.67;1.23;;;26.90;42.20;;;;;;5127142;27;45354;-73
2022/08/15 09:01:35;;;;;;;1.13;1.10;;;26.90;42.10;;;;;;5127195;27;45470;-73
2022/08/15 09:04:06;;;;;;;1.30;1.20;;;26.90;42.00;;;;;;5127463;27;45374;-73
2022/08/15 09:06:38;;;;;;;1.35;1.20;;;26.90;42.10;;;;;;5127468;27;45235;-73
2022/08/15 09:09:08;;;;;;;1.20;1.20;;;27.00;42.00;;;;;;5128414;27;45241;-73
2022/08/15 09:11:39;;;;;;;1.50;1.40;;;27.00;41.80;;;;;;5130223;27;45211;-73
2022/08/15 09:14:11;;;;;;;1.48;1.38;;;27.00;41.80;;;;;;5130195;27;45243;-73
2022/08/15 09:16:39;;;;;;;1.33;1.17;;;27.00;41.60;;;;;;5130469;27;45274;-73
2022/08/15 09:19:11;;;;;;;1.15;1.10;;;27.10;41.60;;;;;;5130570;27;45460;-73
2022/08/15 09:21:37;;;;;;;0.98;0.98;;;27.10;41.50;;;;;;5130539;27;45318;-73
2022/08/15 09:24:05;;;;;;;1.50;1.40;;;27.10;41.70;;;;;;5130554;27;45308;-73
2022/08/15 09:26:34;;;;;;;1.40;1.30;;;27.10;41.70;;;;;;5130760;27;45152;-73
2022/08/15 09:29:07;;;;;;;1.83;1.40;;;27.20;41.80;;;;;;5130394;27;46738;-73
2022/08/15 09:31:35;;;;;;;1.38;1.17;;;27.20;42.00;;;;;;5109751;27;45198;-73
2022/08/15 09:34:17;;;;;;;2.40;1.42;;;27.20;42.00;;;;;;5109792;27;45323;-73
2022/08/15 09:37:08;;;;;;;1.58;1.48;;;27.30;42.40;;;;;;5109622;27;45212;-73
2022/08/15 09:39:47;;;;;;;1.35;1.25;;;27.30;42.10;;;;;;5109650;27;45433;-73
2022/08/15 09:42:21;;;;;;;1.58;1.50;;;27.30;42.50;;;;;;5109709;27;45224;-73
2022/08/15 09:44:58;;;;;;;1.50;1.40;;;27.30;42.70;;;;;;5109649;27;45235;-73
2022/08/15 09:47:47;;;;;;;1.80;1.60;;;27.30;42.80;;;;;;5109648;27;45191;-73
2022/08/15 09:50:48;;;;;;;2.45;1.73;;;27.40;43.50;;;;;;5109073;27;45359;-73
2022/08/15 09:53:24;;;;;;;2.10;1.77;;;27.40;43.00;;;;;;5106047;27;45213;-73
2022/08/15 09:55:51;;;;;;;2.30;1.70;;;27.50;43.20;;;;;;5130397;27;45435;-72
2022/08/15 09:58:20;;;;;;;4.03;2.10;;;27.50;44.10;;;;;;5130199;27;45530;-72
2022/08/15 10:00:59;;;;;;;2.53;1.92;;;27.50;43.70;;;;;;5128952;27;45820;-72
2022/08/15 10:03:57;;;;;;;8.32;2.20;;;27.50;44.10;;;;;;5129474;27;45394;-71
2022/08/15 10:06:27;;;;;;;3.67;2.70;;;27.50;44.10;;;;;;5127200;27;45545;-72
2022/08/15 10:09:16;;;;;;;4.97;2.40;;;27.50;44.80;;;;;;5130041;27;45177;-72
2022/08/15 10:12:16;;;;;;;3.83;2.20;;;27.60;44.40;;;;;;5129602;27;46613;-73
2022/08/15 10:14:49;;;;;;;3.28;2.40;;;27.70;43.90;;;;;;5129509;27;45247;-74
2022/08/15 10:17:23;;;;;;;2.58;2.38;;;27.70;44.00;;;;;;5129806;27;45234;-73
2022/08/15 10:19:50;;;;;;;3.85;2.40;;;27.70;44.00;;;;;;5129600;27;45262;-73
2022/08/15 10:22:45;;;;;;;4.97;2.55;;;27.80;43.80;;;;;;5129655;27;46383;-73
2022/08/15 10:25:15;;;;;;;4.45;2.53;;;27.90;44.10;;;;;;5114899;27;45481;-73
2022/08/15 10:27:54;;;;;;;4.50;2.83;;;27.90;44.00;;;;;;5129483;27;45320;-72
2022/08/15 10:30:21;;;;;;;2.70;2.50;;;28.00;43.80;;;;;;5119372;27;45231;-73
2022/08/15 10:32:50;;;;;;;2.58;2.35;;;28.00;43.00;;;;;;5108481;27;47734;-73
2022/08/15 10:35:21;;;;;;;3.30;2.60;;;28.00;42.80;;;;;;5108575;27;45275;-73
2022/08/15 10:37:53;;;;;;;2.90;2.60;;;28.00;42.50;;;;;;5108547;27;45295;-73
2022/08/15 10:40:49;;;;;;;2.92;2.60;;;28.00;42.80;;;;;;5107482;27;45398;-73
2022/08/15 10:43:28;;;;;;;3.75;2.90;;;28.10;43.00;;;;;;5108371;27;45376;-72
2022/08/15 10:45:59;;;;;;;3.00;2.67;;;28.10;42.80;;;;;;5108449;27;45126;-73
2022/08/15 10:48:38;;;;;;;3.10;2.30;;;28.20;42.60;;;;;;5108554;27;45310;-73
2022/08/15 10:51:11;;;;;;;5.68;2.60;;;28.30;42.40;;;;;;5108060;27;45365;-73
2022/08/15 10:53:50;;;;;;;3.22;2.42;;;28.30;42.30;;;;;;5129037;27;46291;-73
2022/08/15 10:56:19;;;;;;;2.83;2.63;;;28.30;42.00;;;;;;5128833;27;45264;-73
2022/08/15 10:58:46;;;;;;;5.07;2.72;;;28.40;42.30;;;;;;5129230;27;45306;-73
2022/08/15 11:01:14;;;;;;;3.95;2.80;;;28.50;42.50;;;;;;5129106;27;45159;-73
2022/08/15 11:03:43;;;;;;;4.93;3.15;;;28.50;42.10;;;;;;5128981;27;46500;-73
2022/08/15 11:06:12;;;;;;;5.20;2.78;;;28.40;41.00;;;;;;5128864;27;45321;-70
2022/08/15 11:08:46;;;;;;;3.75;2.70;;;28.50;41.10;;;;;;5128912;27;45184;-74
2022/08/15 11:11:15;;;;;;;3.17;2.88;;;28.50;40.60;;;;;;5129256;27;45569;-71
2022/08/15 11:13:46;;;;;;;4.22;2.85;;;28.50;40.30;;;;;;5125890;27;45324;-71
2022/08/15 11:16:18;;;;;;;3.50;2.80;;;28.50;39.90;;;;;;5127400;27;45294;-71
2022/08/15 11:18:51;;;;;;;3.38;2.65;;;28.50;39.40;;;;;;5128856;27;45301;-72
2022/08/15 11:21:27;;;;;;;4.82;2.70;;;28.50;39.40;;;;;;5128696;27;45365;-72
2022/08/15 11:23:56;;;;;;;4.20;3.13;;;28.40;38.70;;;;;;5128218;27;46381;-72
2022/08/15 11:26:25;;;;;;;3.28;2.97;;;28.50;39.70;;;;;;5128625;27;45191;-72
2022/08/15 11:29:15;;;;;;;4.22;2.45;;;28.50;39.30;;;;;;5127920;27;45155;-71
2022/08/15 11:31:46;;;;;;;3.00;2.70;;;28.60;39.60;;;;;;5124763;27;45327;-71
2022/08/15 11:34:24;;;;;;;3.92;2.78;;;28.70;39.70;;;;;;5128299;27;47539;-70
2022/08/15 11:36:51;;;;;;;4.07;2.88;;;28.70;40.60;;;;;;5128248;27;45314;-72
2022/08/15 11:39:20;;;;;;;7.05;3.47;;;28.80;39.70;;;;;;5128224;27;45188;-70
2022/08/15 11:41:48;;;;;;;3.05;2.75;;;28.80;39.50;;;;;;5127664;27;45441;-71
2022/08/15 11:44:15;;;;;;;4.80;2.90;;;28.80;39.30;;;;;;5128128;27;46646;-71
2022/08/15 11:46:45;;;;;;;3.00;2.67;;;28.80;39.20;;;;;;5128150;27;45406;-72
2022/08/15 11:49:14;;;;;;;4.93;2.85;;;28.80;39.20;;;;;;5128329;27;45181;-71
2022/08/15 11:51:42;;;;;;;3.20;2.90;;;28.90;39.50;;;;;;5128054;27;44793;-71
2022/08/15 11:54:22;;;;;;;5.03;3.45;;;28.90;39.70;;;;;;5127722;27;46397;-71
2022/08/15 11:56:50;;;;;;;2.80;2.60;;;29.00;39.70;;;;;;5128051;27;45373;-71
2022/08/15 11:59:21;;;;;;;3.13;2.83;;;29.00;39.30;;;;;;5128301;27;45316;-71
2022/08/15 12:02:01;;;;;;;3.40;3.10;;;29.00;39.20;;;;;;5128458;27;45358;-71
2022/08/15 12:04:29;;;;;;;3.30;3.00;;;29.00;39.40;;;;;;5127591;27;46653;-73
2022/08/15 12:06:56;;;;;;;4.20;2.67;;;29.00;39.10;;;;;;5127841;27;45319;-72
2022/08/15 12:09:25;;;;;;;2.45;2.13;;;29.00;39.30;;;;;;5128108;27;45198;-72
2022/08/15 12:11:52;;;;;;;4.18;2.17;;;28.90;39.10;;;;;;5128178;27;45346;-72
2022/08/15 12:14:21;;;;;;;2.55;1.60;;;28.80;38.60;;;;;;5127562;27;47289;-70
2022/08/15 12:16:50;;;;;;;2.35;1.55;;;28.70;38.30;;;;;;5127836;27;45274;-71
2022/08/15 12:19:29;;;;;;;10.75;2.55;;;28.70;38.60;;;;;;5127772;27;45247;-71
2022/08/15 12:21:56;;;;;;;3.40;1.42;;;28.60;38.70;;;;;;5127751;27;45264;-71
2022/08/15 12:24:25;;;;;;;2.88;1.38;;;28.50;39.40;;;;;;5127393;27;46551;-71
2022/08/15 12:26:53;;;;;;;2.83;1.48;;;28.50;39.70;;;;;;5127488;27;45366;-71
2022/08/15 12:29:20;;;;;;;1.60;1.17;;;28.40;40.20;;;;;;5125935;27;45246;-70
2022/08/15 12:31:48;;;;;;;5.97;1.30;;;28.30;40.80;;;;;;5107258;27;45184;-71
2022/08/15 12:34:16;;;;;;;3.47;1.45;;;28.20;41.20;;;;;;5106531;27;45379;-71
2022/08/15 12:36:43;;;;;;;2.40;1.40;;;28.10;41.30;;;;;;5106542;27;45237;-73
2022/08/15 12:39:11;;;;;;;4.10;1.75;;;28.00;41.40;;;;;;5107030;27;45181;-73
2022/08/15 12:41:39;;;;;;;3.20;1.20;;;27.90;41.80;;;;;;5106848;27;45438;-74
2022/08/15 12:44:07;;;;;;;1.20;1.10;;;27.90;42.10;;;;;;5109345;27;45316;-72
2022/08/15 12:46:34;;;;;;;3.80;1.17;;;27.80;42.70;;;;;;5109553;27;45295;-73
2022/08/15 12:49:01;;;;;;;3.90;1.27;;;27.80;44.20;;;;;;5110515;27;45196;-73
2022/08/15 12:51:28;;;;;;;1.38;1.05;;;27.70;44.20;;;;;;5115206;27;45122;-73
2022/08/15 12:53:54;;;;;;;1.33;1.23;;;27.60;44.60;;;;;;5130625;27;46573;-73
2022/08/15 12:56:22;;;;;;;2.15;1.33;;;27.60;44.50;;;;;;5130602;27;45472;-72
2022/08/15 12:58:51;;;;;;;1.50;1.38;;;27.50;45.00;;;;;;5131095;27;45240;-71
2022/08/15 13:01:18;;;;;;;3.45;1.40;;;27.40;44.80;;;;;;5130981;27;45216;-71
2022/08/15 13:03:45;;;;;;;2.97;1.17;;;27.40;44.90;;;;;;5130644;27;45335;-71
2022/08/15 13:06:15;;;;;;;3.53;1.40;;;27.40;45.60;;;;;;5130602;27;45303;-72
2022/08/15 13:08:42;;;;;;;4.43;1.38;;;27.40;46.00;;;;;;5131640;27;45217;-71